sensor_id;sensor_type;location;lat;lon;timestamp;P1;durP1;ratioP1;P2;durP2;ratioP2
22388;SDS011;11362;48.102;11.620;2023-11-19T00:01:36;3.90;;;0.70;;
22388;SDS011;11362;48.102;11.620;2023-11-19T00:04:01;2.33;;;0.73;;
22388;SDS011;11362;48.102;11.620;2023-11-19T00:06:26;3.03;;;1.00;;
22388;SDS011;11362;48.102;11.620;2023-11-19T00:08:52;1.03;;;0.90;;
22388;SDS011;11362;48.102;11.620;2023-11-19T00:11:17;2.77;;;1.00;;
22388;SDS011;11362;48.102;11.620;2023-11-19T00:13:42;1.10;;;0.87;;
22388;SDS011;11362;48.102;11.620;2023-11-19T00:16:08;2.60;;;0.80;;
22388;SDS011;11362;48.102;11.620;2023-11-19T00:18:33;0.77;;;0.77;;
22388;SDS011;11362;48.102;11.620;2023-11-19T00:20:58;5.40;;;0.77;;
22388;SDS011;11362;48.102;11.620;2023-11-19T00:23:24;1.10;;;0.80;;
22388;SDS011;11362;48.102;11.620;2023-11-19T00:25:49;2.10;;;1.03;;
22388;SDS011;11362;48.102;11.620;2023-11-19T00:28:14;3.63;;;0.97;;
22388;SDS011;11362;48.102;11.620;2023-11-19T00:30:39;3.17;;;0.97;;
22388;SDS011;11362;48.102;11.620;2023-11-19T00:33:05;1.43;;;0.73;;
22388;SDS011;11362;48.102;11.620;2023-11-19T00:35:30;4.50;;;1.10;;
22388;SDS011;11362;48.102;11.620;2023-11-19T00:37:55;2.00;;;0.70;;
22388;SDS011;11362;48.102;11.620;2023-11-19T00:40:20;2.47;;;0.73;;
22388;SDS011;11362;48.102;11.620;2023-11-19T00:42:46;0.90;;;0.60;;
22388;SDS011;11362;48.102;11.620;2023-11-19T00:45:11;1.10;;;0.70;;
22388;SDS011;11362;48.102;11.620;2023-11-19T00:47:36;2.47;;;0.90;;
22388;SDS011;11362;48.102;11.620;2023-11-19T00:50:02;2.27;;;0.80;;
22388;SDS011;11362;48.102;11.620;2023-11-19T00:52:28;2.37;;;0.90;;
22388;SDS011;11362;48.102;11.620;2023-11-19T00:54:53;3.23;;;0.70;;
22388;SDS011;11362;48.102;11.620;2023-11-19T00:57:18;1.97;;;0.60;;
22388;SDS011;11362;48.102;11.620;2023-11-19T00:59:44;2.37;;;0.70;;
22388;SDS011;11362;48.102;11.620;2023-11-19T01:02:09;0.60;;;0.60;;
22388;SDS011;11362;48.102;11.620;2023-11-19T01:04:35;5.13;;;0.80;;
22388;SDS011;11362;48.102;11.620;2023-11-19T01:07:02;0.93;;;0.70;;
22388;SDS011;11362;48.102;11.620;2023-11-19T01:09:28;2.30;;;0.83;;
22388;SDS011;11362;48.102;11.620;2023-11-19T01:11:53;0.60;;;0.50;;
22388;SDS011;11362;48.102;11.620;2023-11-19T01:14:18;0.70;;;0.60;;
22388;SDS011;11362;48.102;11.620;2023-11-19T01:16:44;3.80;;;1.00;;
22388;SDS011;11362;48.102;11.620;2023-11-19T01:19:09;1.83;;;0.77;;
22388;SDS011;11362;48.102;11.620;2023-11-19T01:21:34;3.40;;;0.90;;
22388;SDS011;11362;48.102;11.620;2023-11-19T01:23:59;1.27;;;0.70;;
22388;SDS011;11362;48.102;11.620;2023-11-19T01:26:25;1.37;;;0.70;;
22388;SDS011;11362;48.102;11.620;2023-11-19T01:28:50;3.03;;;0.60;;
22388;SDS011;11362;48.102;11.620;2023-11-19T01:31:15;1.23;;;0.87;;
22388;SDS011;11362;48.102;11.620;2023-11-19T01:33:41;0.80;;;0.80;;
22388;SDS011;11362;48.102;11.620;2023-11-19T01:36:06;0.50;;;0.50;;
22388;SDS011;11362;48.102;11.620;2023-11-19T01:38:32;1.33;;;0.57;;
22388;SDS011;11362;48.102;11.620;2023-11-19T01:40:57;3.83;;;0.60;;
22388;SDS011;11362;48.102;11.620;2023-11-19T01:43:35;0.50;;;0.50;;
22388;SDS011;11362;48.102;11.620;2023-11-19T01:46:02;0.97;;;0.70;;
22388;SDS011;11362;48.102;11.620;2023-11-19T01:48:28;0.30;;;0.30;;
22388;SDS011;11362;48.102;11.620;2023-11-19T01:50:53;2.00;;;0.60;;
22388;SDS011;11362;48.102;11.620;2023-11-19T01:53:19;0.60;;;0.60;;
22388;SDS011;11362;48.102;11.620;2023-11-19T01:55:46;1.33;;;0.53;;
22388;SDS011;11362;48.102;11.620;2023-11-19T01:58:12;0.60;;;0.60;;
22388;SDS011;11362;48.102;11.620;2023-11-19T02:00:38;2.10;;;0.70;;
22388;SDS011;11362;48.102;11.620;2023-11-19T02:03:03;2.37;;;0.83;;
22388;SDS011;11362;48.102;11.620;2023-11-19T02:05:31;1.60;;;0.60;;
22388;SDS011;11362;48.102;11.620;2023-11-19T02:07:56;2.00;;;0.60;;
22388;SDS011;11362;48.102;11.620;2023-11-19T02:10:22;0.67;;;0.63;;
22388;SDS011;11362;48.102;11.620;2023-11-19T02:12:47;1.17;;;0.50;;
22388;SDS011;11362;48.102;11.620;2023-11-19T02:15:12;1.40;;;0.53;;
22388;SDS011;11362;48.102;11.620;2023-11-19T02:17:38;0.50;;;0.50;;
22388;SDS011;11362;48.102;11.620;2023-11-19T02:20:03;0.50;;;0.50;;
22388;SDS011;11362;48.102;11.620;2023-11-19T02:22:29;1.53;;;0.50;;
22388;SDS011;11362;48.102;11.620;2023-11-19T02:24:55;1.87;;;0.57;;
22388;SDS011;11362;48.102;11.620;2023-11-19T02:30:12;1.47;;;0.50;;
22388;SDS011;11362;48.102;11.620;2023-11-19T02:32:37;0.47;;;0.47;;
22388;SDS011;11362;48.102;11.620;2023-11-19T02:35:02;0.67;;;0.43;;
22388;SDS011;11362;48.102;11.620;2023-11-19T02:37:28;0.63;;;0.60;;
22388;SDS011;11362;48.102;11.620;2023-11-19T02:39:53;2.67;;;0.60;;
22388;SDS011;11362;48.102;11.620;2023-11-19T02:42:18;0.97;;;0.37;;
22388;SDS011;11362;48.102;11.620;2023-11-19T02:44:44;0.60;;;0.50;;
22388;SDS011;11362;48.102;11.620;2023-11-19T02:47:10;0.50;;;0.50;;
22388;SDS011;11362;48.102;11.620;2023-11-19T02:49:35;4.13;;;0.77;;
22388;SDS011;11362;48.102;11.620;2023-11-19T02:52:00;0.60;;;0.50;;
22388;SDS011;11362;48.102;11.620;2023-11-19T02:54:25;0.40;;;0.40;;
22388;SDS011;11362;48.102;11.620;2023-11-19T02:56:51;2.87;;;0.67;;
22388;SDS011;11362;48.102;11.620;2023-11-19T02:59:16;1.10;;;0.50;;
22388;SDS011;11362;48.102;11.620;2023-11-19T03:01:41;2.37;;;0.57;;
22388;SDS011;11362;48.102;11.620;2023-11-19T03:04:06;4.10;;;0.50;;
22388;SDS011;11362;48.102;11.620;2023-11-19T03:06:32;1.60;;;0.50;;
22388;SDS011;11362;48.102;11.620;2023-11-19T03:08:57;0.70;;;0.30;;
22388;SDS011;11362;48.102;11.620;2023-11-19T03:11:22;3.87;;;0.70;;
22388;SDS011;11362;48.102;11.620;2023-11-19T03:13:47;0.87;;;0.50;;
22388;SDS011;11362;48.102;11.620;2023-11-19T03:16:13;3.30;;;0.50;;
22388;SDS011;11362;48.102;11.620;2023-11-19T03:18:38;0.33;;;0.33;;
22388;SDS011;11362;48.102;11.620;2023-11-19T03:21:07;0.60;;;0.60;;
22388;SDS011;11362;48.102;11.620;2023-11-19T03:23:33;0.40;;;0.40;;
22388;SDS011;11362;48.102;11.620;2023-11-19T03:25:58;0.87;;;0.53;;
22388;SDS011;11362;48.102;11.620;2023-11-19T03:28:23;0.50;;;0.50;;
22388;SDS011;11362;48.102;11.620;2023-11-19T03:30:48;0.63;;;0.63;;
22388;SDS011;11362;48.102;11.620;2023-11-19T03:33:14;1.03;;;0.50;;
22388;SDS011;11362;48.102;11.620;2023-11-19T03:35:39;0.83;;;0.60;;
22388;SDS011;11362;48.102;11.620;2023-11-19T03:38:04;2.10;;;0.70;;
22388;SDS011;11362;48.102;11.620;2023-11-19T03:40:29;0.97;;;0.43;;
22388;SDS011;11362;48.102;11.620;2023-11-19T03:42:58;1.43;;;0.80;;
22388;SDS011;11362;48.102;11.620;2023-11-19T03:45:23;0.60;;;0.40;;
22388;SDS011;11362;48.102;11.620;2023-11-19T03:47:49;0.87;;;0.40;;
22388;SDS011;11362;48.102;11.620;2023-11-19T03:50:14;0.57;;;0.33;;
22388;SDS011;11362;48.102;11.620;2023-11-19T03:52:39;0.30;;;0.30;;
22388;SDS011;11362;48.102;11.620;2023-11-19T03:55:05;1.50;;;0.57;;
22388;SDS011;11362;48.102;11.620;2023-11-19T03:57:30;0.40;;;0.40;;
22388;SDS011;11362;48.102;11.620;2023-11-19T03:59:56;0.37;;;0.37;;
22388;SDS011;11362;48.102;11.620;2023-11-19T04:02:21;1.37;;;0.50;;
22388;SDS011;11362;48.102;11.620;2023-11-19T04:04:46;0.50;;;0.40;;
22388;SDS011;11362;48.102;11.620;2023-11-19T04:07:11;2.20;;;0.40;;
22388;SDS011;11362;48.102;11.620;2023-11-19T04:09:37;1.00;;;0.40;;
22388;SDS011;11362;48.102;11.620;2023-11-19T04:12:02;0.50;;;0.40;;
22388;SDS011;11362;48.102;11.620;2023-11-19T04:14:28;0.70;;;0.40;;
22388;SDS011;11362;48.102;11.620;2023-11-19T04:16:53;0.37;;;0.37;;
22388;SDS011;11362;48.102;11.620;2023-11-19T04:19:19;0.40;;;0.40;;
22388;SDS011;11362;48.102;11.620;2023-11-19T04:21:44;0.60;;;0.30;;
22388;SDS011;11362;48.102;11.620;2023-11-19T04:24:10;0.90;;;0.30;;
22388;SDS011;11362;48.102;11.620;2023-11-19T04:26:35;0.40;;;0.40;;
22388;SDS011;11362;48.102;11.620;2023-11-19T04:29:01;0.23;;;0.23;;
22388;SDS011;11362;48.102;11.620;2023-11-19T04:31:29;1.80;;;0.30;;
22388;SDS011;11362;48.102;11.620;2023-11-19T04:33:54;0.47;;;0.47;;
22388;SDS011;11362;48.102;11.620;2023-11-19T04:36:20;1.20;;;0.30;;
22388;SDS011;11362;48.102;11.620;2023-11-19T04:38:45;0.40;;;0.40;;
22388;SDS011;11362;48.102;11.620;2023-11-19T04:41:10;0.47;;;0.47;;
22388;SDS011;11362;48.102;11.620;2023-11-19T04:43:35;0.40;;;0.40;;
22388;SDS011;11362;48.102;11.620;2023-11-19T04:46:03;0.33;;;0.33;;
22388;SDS011;11362;48.102;11.620;2023-11-19T04:48:29;0.33;;;0.33;;
22388;SDS011;11362;48.102;11.620;2023-11-19T04:50:54;0.40;;;0.40;;
22388;SDS011;11362;48.102;11.620;2023-11-19T04:53:19;0.47;;;0.47;;
22388;SDS011;11362;48.102;11.620;2023-11-19T04:55:45;0.30;;;0.30;;
22388;SDS011;11362;48.102;11.620;2023-11-19T04:58:10;0.40;;;0.40;;
22388;SDS011;11362;48.102;11.620;2023-11-19T05:00:35;0.37;;;0.33;;
22388;SDS011;11362;48.102;11.620;2023-11-19T05:03:01;0.20;;;0.20;;
22388;SDS011;11362;48.102;11.620;2023-11-19T05:05:26;0.20;;;0.20;;
22388;SDS011;11362;48.102;11.620;2023-11-19T05:07:51;0.40;;;0.30;;
22388;SDS011;11362;48.102;11.620;2023-11-19T05:10:16;0.30;;;0.30;;
22388;SDS011;11362;48.102;11.620;2023-11-19T05:12:42;0.80;;;0.67;;
22388;SDS011;11362;48.102;11.620;2023-11-19T05:15:07;0.23;;;0.23;;
22388;SDS011;11362;48.102;11.620;2023-11-19T05:17:33;1.03;;;0.30;;
22388;SDS011;11362;48.102;11.620;2023-11-19T05:19:58;0.57;;;0.30;;
22388;SDS011;11362;48.102;11.620;2023-11-19T05:22:23;0.20;;;0.20;;
22388;SDS011;11362;48.102;11.620;2023-11-19T05:24:49;0.60;;;0.40;;
22388;SDS011;11362;48.102;11.620;2023-11-19T05:27:14;0.40;;;0.40;;
22388;SDS011;11362;48.102;11.620;2023-11-19T05:29:39;0.30;;;0.30;;
22388;SDS011;11362;48.102;11.620;2023-11-19T05:32:05;0.33;;;0.33;;
22388;SDS011;11362;48.102;11.620;2023-11-19T05:34:30;0.40;;;0.30;;
22388;SDS011;11362;48.102;11.620;2023-11-19T05:36:55;0.30;;;0.30;;
22388;SDS011;11362;48.102;11.620;2023-11-19T05:39:21;0.33;;;0.33;;
22388;SDS011;11362;48.102;11.620;2023-11-19T05:41:46;0.30;;;0.30;;
22388;SDS011;11362;48.102;11.620;2023-11-19T05:44:11;0.20;;;0.20;;
22388;SDS011;11362;48.102;11.620;2023-11-19T05:46:37;0.30;;;0.30;;
22388;SDS011;11362;48.102;11.620;2023-11-19T05:49:02;0.60;;;0.30;;
22388;SDS011;11362;48.102;11.620;2023-11-19T05:51:27;0.30;;;0.27;;
22388;SDS011;11362;48.102;11.620;2023-11-19T05:53:52;0.63;;;0.40;;
22388;SDS011;11362;48.102;11.620;2023-11-19T05:56:18;0.27;;;0.27;;
22388;SDS011;11362;48.102;11.620;2023-11-19T05:58:43;0.30;;;0.30;;
22388;SDS011;11362;48.102;11.620;2023-11-19T06:01:08;0.30;;;0.30;;
22388;SDS011;11362;48.102;11.620;2023-11-19T06:03:33;0.70;;;0.40;;
22388;SDS011;11362;48.102;11.620;2023-11-19T06:05:59;0.37;;;0.30;;
22388;SDS011;11362;48.102;11.620;2023-11-19T06:08:24;0.63;;;0.20;;
22388;SDS011;11362;48.102;11.620;2023-11-19T06:10:49;0.47;;;0.47;;
22388;SDS011;11362;48.102;11.620;2023-11-19T06:13:14;0.20;;;0.20;;
22388;SDS011;11362;48.102;11.620;2023-11-19T06:15:41;0.30;;;0.30;;
22388;SDS011;11362;48.102;11.620;2023-11-19T06:18:09;0.50;;;0.40;;
22388;SDS011;11362;48.102;11.620;2023-11-19T06:20:34;0.30;;;0.30;;
22388;SDS011;11362;48.102;11.620;2023-11-19T06:23:00;0.37;;;0.37;;
22388;SDS011;11362;48.102;11.620;2023-11-19T06:25:25;0.20;;;0.20;;
22388;SDS011;11362;48.102;11.620;2023-11-19T06:27:51;0.30;;;0.30;;
22388;SDS011;11362;48.102;11.620;2023-11-19T06:30:17;0.30;;;0.30;;
22388;SDS011;11362;48.102;11.620;2023-11-19T06:32:42;0.30;;;0.30;;
22388;SDS011;11362;48.102;11.620;2023-11-19T06:35:08;0.50;;;0.50;;
22388;SDS011;11362;48.102;11.620;2023-11-19T06:37:33;0.43;;;0.30;;
22388;SDS011;11362;48.102;11.620;2023-11-19T06:39:59;0.30;;;0.30;;
22388;SDS011;11362;48.102;11.620;2023-11-19T06:42:24;0.30;;;0.30;;
22388;SDS011;11362;48.102;11.620;2023-11-19T06:44:49;0.20;;;0.20;;
22388;SDS011;11362;48.102;11.620;2023-11-19T06:47:15;0.30;;;0.30;;
22388;SDS011;11362;48.102;11.620;2023-11-19T06:49:43;0.20;;;0.20;;
22388;SDS011;11362;48.102;11.620;2023-11-19T06:52:09;0.30;;;0.30;;
22388;SDS011;11362;48.102;11.620;2023-11-19T06:54:34;0.30;;;0.30;;
22388;SDS011;11362;48.102;11.620;2023-11-19T06:56:59;0.30;;;0.30;;
22388;SDS011;11362;48.102;11.620;2023-11-19T06:59:25;0.20;;;0.20;;
22388;SDS011;11362;48.102;11.620;2023-11-19T07:01:50;0.20;;;0.20;;
22388;SDS011;11362;48.102;11.620;2023-11-19T07:04:15;0.23;;;0.20;;
22388;SDS011;11362;48.102;11.620;2023-11-19T07:06:40;0.30;;;0.30;;
22388;SDS011;11362;48.102;11.620;2023-11-19T07:09:06;0.80;;;0.50;;
22388;SDS011;11362;48.102;11.620;2023-11-19T07:11:31;0.43;;;0.43;;
22388;SDS011;11362;48.102;11.620;2023-11-19T07:13:57;0.30;;;0.30;;
22388;SDS011;11362;48.102;11.620;2023-11-19T07:16:22;0.40;;;0.27;;
22388;SDS011;11362;48.102;11.620;2023-11-19T07:18:48;0.20;;;0.20;;
22388;SDS011;11362;48.102;11.620;2023-11-19T07:21:13;0.40;;;0.40;;
22388;SDS011;11362;48.102;11.620;2023-11-19T07:23:39;0.77;;;0.40;;
22388;SDS011;11362;48.102;11.620;2023-11-19T07:26:04;0.80;;;0.50;;
22388;SDS011;11362;48.102;11.620;2023-11-19T07:28:30;6.63;;;0.67;;
22388;SDS011;11362;48.102;11.620;2023-11-19T07:30:56;6.57;;;1.00;;
22388;SDS011;11362;48.102;11.620;2023-11-19T07:33:22;5.83;;;1.27;;
22388;SDS011;11362;48.102;11.620;2023-11-19T07:35:47;11.70;;;1.20;;
22388;SDS011;11362;48.102;11.620;2023-11-19T07:38:12;6.97;;;1.00;;
22388;SDS011;11362;48.102;11.620;2023-11-19T07:40:38;7.33;;;1.10;;
22388;SDS011;11362;48.102;11.620;2023-11-19T07:43:03;10.73;;;1.70;;
22388;SDS011;11362;48.102;11.620;2023-11-19T07:45:28;7.87;;;1.40;;
22388;SDS011;11362;48.102;11.620;2023-11-19T07:47:54;12.93;;;1.30;;
22388;SDS011;11362;48.102;11.620;2023-11-19T07:50:19;7.23;;;1.40;;
22388;SDS011;11362;48.102;11.620;2023-11-19T07:52:44;12.20;;;1.10;;
22388;SDS011;11362;48.102;11.620;2023-11-19T07:55:09;7.57;;;1.07;;
22388;SDS011;11362;48.102;11.620;2023-11-19T07:57:35;6.27;;;1.30;;
22388;SDS011;11362;48.102;11.620;2023-11-19T08:00:00;9.40;;;1.53;;
22388;SDS011;11362;48.102;11.620;2023-11-19T08:02:26;9.80;;;1.47;;
22388;SDS011;11362;48.102;11.620;2023-11-19T08:04:51;3.50;;;1.00;;
22388;SDS011;11362;48.102;11.620;2023-11-19T08:07:17;7.30;;;1.20;;
22388;SDS011;11362;48.102;11.620;2023-11-19T08:09:43;5.63;;;0.87;;
22388;SDS011;11362;48.102;11.620;2023-11-19T08:12:09;10.93;;;1.60;;
22388;SDS011;11362;48.102;11.620;2023-11-19T08:14:35;10.20;;;1.87;;
22388;SDS011;11362;48.102;11.620;2023-11-19T08:17:00;31.83;;;2.00;;
22388;SDS011;11362;48.102;11.620;2023-11-19T08:19:26;11.90;;;1.87;;
22388;SDS011;11362;48.102;11.620;2023-11-19T08:21:51;15.17;;;1.80;;
22388;SDS011;11362;48.102;11.620;2023-11-19T08:24:17;17.07;;;2.20;;
22388;SDS011;11362;48.102;11.620;2023-11-19T08:26:42;18.87;;;2.30;;
22388;SDS011;11362;48.102;11.620;2023-11-19T08:29:08;12.67;;;2.33;;
22388;SDS011;11362;48.102;11.620;2023-11-19T08:31:33;16.23;;;1.87;;
22388;SDS011;11362;48.102;11.620;2023-11-19T08:33:58;16.13;;;2.10;;
22388;SDS011;11362;48.102;11.620;2023-11-19T08:36:24;11.23;;;2.00;;
22388;SDS011;11362;48.102;11.620;2023-11-19T08:38:49;17.13;;;2.37;;
22388;SDS011;11362;48.102;11.620;2023-11-19T08:41:15;11.23;;;2.27;;
22388;SDS011;11362;48.102;11.620;2023-11-19T08:43:41;8.83;;;1.67;;
22388;SDS011;11362;48.102;11.620;2023-11-19T08:46:10;22.77;;;2.60;;
22388;SDS011;11362;48.102;11.620;2023-11-19T08:48:36;16.83;;;2.50;;
22388;SDS011;11362;48.102;11.620;2023-11-19T08:51:01;15.80;;;2.43;;
22388;SDS011;11362;48.102;11.620;2023-11-19T08:53:26;16.07;;;2.03;;
22388;SDS011;11362;48.102;11.620;2023-11-19T08:55:52;14.43;;;1.93;;
22388;SDS011;11362;48.102;11.620;2023-11-19T08:58:17;22.80;;;3.17;;
22388;SDS011;11362;48.102;11.620;2023-11-19T09:00:42;12.40;;;2.43;;
22388;SDS011;11362;48.102;11.620;2023-11-19T09:03:07;16.80;;;2.30;;
22388;SDS011;11362;48.102;11.620;2023-11-19T09:05:33;18.07;;;3.10;;
22388;SDS011;11362;48.102;11.620;2023-11-19T09:07:58;16.27;;;3.33;;
22388;SDS011;11362;48.102;11.620;2023-11-19T09:10:23;12.47;;;1.97;;
22388;SDS011;11362;48.102;11.620;2023-11-19T09:12:49;11.73;;;2.20;;
22388;SDS011;11362;48.102;11.620;2023-11-19T09:15:14;12.70;;;2.70;;
22388;SDS011;11362;48.102;11.620;2023-11-19T09:17:39;14.33;;;2.20;;
22388;SDS011;11362;48.102;11.620;2023-11-19T09:20:05;15.53;;;2.23;;
22388;SDS011;11362;48.102;11.620;2023-11-19T09:22:31;16.37;;;2.20;;
22388;SDS011;11362;48.102;11.620;2023-11-19T09:24:57;10.93;;;2.10;;
22388;SDS011;11362;48.102;11.620;2023-11-19T09:27:22;10.63;;;1.90;;
22388;SDS011;11362;48.102;11.620;2023-11-19T09:29:47;7.93;;;1.93;;
22388;SDS011;11362;48.102;11.620;2023-11-19T09:32:13;9.27;;;1.63;;
22388;SDS011;11362;48.102;11.620;2023-11-19T09:34:38;11.17;;;1.60;;
22388;SDS011;11362;48.102;11.620;2023-11-19T09:37:03;9.20;;;1.60;;
22388;SDS011;11362;48.102;11.620;2023-11-19T09:39:29;11.00;;;1.80;;
22388;SDS011;11362;48.102;11.620;2023-11-19T09:41:54;7.70;;;1.70;;
22388;SDS011;11362;48.102;11.620;2023-11-19T09:44:19;10.87;;;2.20;;
22388;SDS011;11362;48.102;11.620;2023-11-19T09:46:44;5.43;;;1.43;;
22388;SDS011;11362;48.102;11.620;2023-11-19T09:49:10;6.10;;;1.87;;
22388;SDS011;11362;48.102;11.620;2023-11-19T09:51:36;5.00;;;1.50;;
22388;SDS011;11362;48.102;11.620;2023-11-19T09:54:02;6.03;;;1.50;;
22388;SDS011;11362;48.102;11.620;2023-11-19T09:56:28;7.33;;;1.30;;
22388;SDS011;11362;48.102;11.620;2023-11-19T09:58:54;6.13;;;1.47;;
22388;SDS011;11362;48.102;11.620;2023-11-19T10:01:19;4.27;;;1.37;;
22388;SDS011;11362;48.102;11.620;2023-11-19T10:03:45;7.10;;;1.73;;
22388;SDS011;11362;48.102;11.620;2023-11-19T10:06:12;5.50;;;1.40;;
22388;SDS011;11362;48.102;11.620;2023-11-19T10:08:39;4.20;;;0.97;;
22388;SDS011;11362;48.102;11.620;2023-11-19T10:11:05;4.23;;;1.50;;
22388;SDS011;11362;48.102;11.620;2023-11-19T10:13:31;6.67;;;1.53;;
22388;SDS011;11362;48.102;11.620;2023-11-19T10:16:03;4.53;;;1.20;;
22388;SDS011;11362;48.102;11.620;2023-11-19T10:18:29;4.33;;;0.90;;
22388;SDS011;11362;48.102;11.620;2023-11-19T10:20:55;6.20;;;1.50;;
22388;SDS011;11362;48.102;11.620;2023-11-19T10:23:20;5.40;;;0.90;;
22388;SDS011;11362;48.102;11.620;2023-11-19T10:25:46;2.50;;;1.00;;
22388;SDS011;11362;48.102;11.620;2023-11-19T10:28:12;3.07;;;0.90;;
22388;SDS011;11362;48.102;11.620;2023-11-19T10:30:40;5.60;;;1.17;;
22388;SDS011;11362;48.102;11.620;2023-11-19T10:33:10;2.77;;;1.03;;
22388;SDS011;11362;48.102;11.620;2023-11-19T10:35:50;3.20;;;0.97;;
22388;SDS011;11362;48.102;11.620;2023-11-19T10:38:16;3.43;;;1.03;;
22388;SDS011;11362;48.102;11.620;2023-11-19T10:40:41;6.30;;;1.23;;
22388;SDS011;11362;48.102;11.620;2023-11-19T10:43:07;3.57;;;1.30;;
22388;SDS011;11362;48.102;11.620;2023-11-19T10:45:33;5.17;;;1.10;;
22388;SDS011;11362;48.102;11.620;2023-11-19T10:47:59;3.70;;;1.40;;
22388;SDS011;11362;48.102;11.620;2023-11-19T10:50:25;5.03;;;1.07;;
22388;SDS011;11362;48.102;11.620;2023-11-19T10:52:52;6.43;;;0.90;;
22388;SDS011;11362;48.102;11.620;2023-11-19T10:55:22;2.67;;;1.07;;
22388;SDS011;11362;48.102;11.620;2023-11-19T10:57:52;3.50;;;0.80;;
22388;SDS011;11362;48.102;11.620;2023-11-19T11:00:21;2.57;;;0.90;;
22388;SDS011;11362;48.102;11.620;2023-11-19T11:02:50;4.03;;;0.80;;
22388;SDS011;11362;48.102;11.620;2023-11-19T11:05:20;2.03;;;0.80;;
22388;SDS011;11362;48.102;11.620;2023-11-19T11:07:47;1.27;;;0.70;;
22388;SDS011;11362;48.102;11.620;2023-11-19T11:10:14;2.43;;;0.77;;
22388;SDS011;11362;48.102;11.620;2023-11-19T11:12:41;1.73;;;0.70;;
22388;SDS011;11362;48.102;11.620;2023-11-19T11:15:06;2.90;;;0.97;;
22388;SDS011;11362;48.102;11.620;2023-11-19T11:17:34;3.27;;;0.90;;
22388;SDS011;11362;48.102;11.620;2023-11-19T11:20:01;3.43;;;0.80;;
22388;SDS011;11362;48.102;11.620;2023-11-19T11:22:27;1.43;;;0.70;;
22388;SDS011;11362;48.102;11.620;2023-11-19T11:28:05;2.30;;;0.77;;
22388;SDS011;11362;48.102;11.620;2023-11-19T11:36:05;2.57;;;1.00;;
22388;SDS011;11362;48.102;11.620;2023-11-19T11:38:43;1.37;;;0.50;;
22388;SDS011;11362;48.102;11.620;2023-11-19T11:41:16;1.77;;;0.80;;
22388;SDS011;11362;48.102;11.620;2023-11-19T11:43:46;1.90;;;0.40;;
22388;SDS011;11362;48.102;11.620;2023-11-19T11:48:58;2.27;;;0.70;;
22388;SDS011;11362;48.102;11.620;2023-11-19T11:54:31;2.33;;;0.57;;
22388;SDS011;11362;48.102;11.620;2023-11-19T11:57:08;0.50;;;0.43;;
22388;SDS011;11362;48.102;11.620;2023-11-19T11:59:36;1.13;;;0.60;;
22388;SDS011;11362;48.102;11.620;2023-11-19T12:02:08;1.30;;;0.60;;
22388;SDS011;11362;48.102;11.620;2023-11-19T12:04:34;1.90;;;0.67;;
22388;SDS011;11362;48.102;11.620;2023-11-19T12:09:30;1.33;;;0.50;;
22388;SDS011;11362;48.102;11.620;2023-11-19T12:12:39;1.97;;;0.40;;
22388;SDS011;11362;48.102;11.620;2023-11-19T12:20:17;0.73;;;0.40;;
22388;SDS011;11362;48.102;11.620;2023-11-19T12:22:44;0.73;;;0.47;;
22388;SDS011;11362;48.102;11.620;2023-11-19T12:25:11;0.30;;;0.30;;
22388;SDS011;11362;48.102;11.620;2023-11-19T12:27:41;0.57;;;0.50;;
22388;SDS011;11362;48.102;11.620;2023-11-19T12:30:08;0.33;;;0.33;;
22388;SDS011;11362;48.102;11.620;2023-11-19T12:32:43;1.00;;;0.50;;
22388;SDS011;11362;48.102;11.620;2023-11-19T12:35:10;0.60;;;0.50;;
22388;SDS011;11362;48.102;11.620;2023-11-19T12:37:40;0.40;;;0.20;;
22388;SDS011;11362;48.102;11.620;2023-11-19T12:40:11;0.60;;;0.40;;
22388;SDS011;11362;48.102;11.620;2023-11-19T12:42:36;1.07;;;0.47;;
22388;SDS011;11362;48.102;11.620;2023-11-19T12:45:02;1.43;;;0.50;;
22388;SDS011;11362;48.102;11.620;2023-11-19T12:47:27;0.57;;;0.40;;
22388;SDS011;11362;48.102;11.620;2023-11-19T12:49:56;0.53;;;0.53;;
22388;SDS011;11362;48.102;11.620;2023-11-19T12:52:22;1.17;;;0.47;;
22388;SDS011;11362;48.102;11.620;2023-11-19T12:54:47;0.20;;;0.20;;
22388;SDS011;11362;48.102;11.620;2023-11-19T12:57:12;0.30;;;0.30;;
22388;SDS011;11362;48.102;11.620;2023-11-19T12:59:38;0.70;;;0.43;;
22388;SDS011;11362;48.102;11.620;2023-11-19T13:02:03;0.97;;;0.40;;
22388;SDS011;11362;48.102;11.620;2023-11-19T13:04:29;0.77;;;0.40;;
22388;SDS011;11362;48.102;11.620;2023-11-19T13:06:55;1.10;;;0.30;;
22388;SDS011;11362;48.102;11.620;2023-11-19T13:11:52;0.37;;;0.37;;
22388;SDS011;11362;48.102;11.620;2023-11-19T13:14:18;0.40;;;0.40;;
22388;SDS011;11362;48.102;11.620;2023-11-19T13:16:44;0.53;;;0.43;;
22388;SDS011;11362;48.102;11.620;2023-11-19T13:19:09;0.30;;;0.30;;
22388;SDS011;11362;48.102;11.620;2023-11-19T13:21:35;0.20;;;0.20;;
22388;SDS011;11362;48.102;11.620;2023-11-19T13:24:00;1.43;;;0.27;;
22388;SDS011;11362;48.102;11.620;2023-11-19T13:26:25;0.20;;;0.20;;
22388;SDS011;11362;48.102;11.620;2023-11-19T13:28:51;0.50;;;0.40;;
22388;SDS011;11362;48.102;11.620;2023-11-19T13:31:16;0.33;;;0.33;;
22388;SDS011;11362;48.102;11.620;2023-11-19T13:33:41;1.33;;;0.40;;
22388;SDS011;11362;48.102;11.620;2023-11-19T13:36:08;0.77;;;0.33;;
22388;SDS011;11362;48.102;11.620;2023-11-19T13:38:33;0.77;;;0.50;;
22388;SDS011;11362;48.102;11.620;2023-11-19T13:40:59;1.30;;;0.33;;
22388;SDS011;11362;48.102;11.620;2023-11-19T13:43:25;0.30;;;0.30;;
22388;SDS011;11362;48.102;11.620;2023-11-19T13:45:50;0.63;;;0.50;;
22388;SDS011;11362;48.102;11.620;2023-11-19T13:48:16;0.40;;;0.30;;
22388;SDS011;11362;48.102;11.620;2023-11-19T13:50:41;0.77;;;0.47;;
22388;SDS011;11362;48.102;11.620;2023-11-19T13:53:07;0.23;;;0.23;;
22388;SDS011;11362;48.102;11.620;2023-11-19T13:55:32;0.40;;;0.40;;
22388;SDS011;11362;48.102;11.620;2023-11-19T13:57:57;0.27;;;0.27;;
22388;SDS011;11362;48.102;11.620;2023-11-19T14:00:22;0.47;;;0.30;;
22388;SDS011;11362;48.102;11.620;2023-11-19T14:02:48;0.40;;;0.30;;
22388;SDS011;11362;48.102;11.620;2023-11-19T14:05:13;0.30;;;0.30;;
22388;SDS011;11362;48.102;11.620;2023-11-19T14:07:40;0.70;;;0.30;;
22388;SDS011;11362;48.102;11.620;2023-11-19T14:10:06;0.40;;;0.40;;
22388;SDS011;11362;48.102;11.620;2023-11-19T14:12:32;0.97;;;0.30;;
22388;SDS011;11362;48.102;11.620;2023-11-19T14:14:58;0.40;;;0.30;;
22388;SDS011;11362;48.102;11.620;2023-11-19T14:17:24;0.77;;;0.23;;
22388;SDS011;11362;48.102;11.620;2023-11-19T14:19:49;0.20;;;0.20;;
22388;SDS011;11362;48.102;11.620;2023-11-19T14:22:14;0.20;;;0.20;;
22388;SDS011;11362;48.102;11.620;2023-11-19T14:24:40;0.20;;;0.20;;
22388;SDS011;11362;48.102;11.620;2023-11-19T14:27:05;0.87;;;0.50;;
22388;SDS011;11362;48.102;11.620;2023-11-19T14:29:30;0.23;;;0.23;;
22388;SDS011;11362;48.102;11.620;2023-11-19T14:31:56;0.77;;;0.40;;
22388;SDS011;11362;48.102;11.620;2023-11-19T14:34:22;0.53;;;0.30;;
22388;SDS011;11362;48.102;11.620;2023-11-19T14:36:47;0.20;;;0.20;;
22388;SDS011;11362;48.102;11.620;2023-11-19T14:39:13;0.40;;;0.30;;
22388;SDS011;11362;48.102;11.620;2023-11-19T14:41:38;0.40;;;0.30;;
22388;SDS011;11362;48.102;11.620;2023-11-19T14:44:03;0.47;;;0.40;;
22388;SDS011;11362;48.102;11.620;2023-11-19T14:46:29;4.07;;;0.60;;
22388;SDS011;11362;48.102;11.620;2023-11-19T14:48:54;1.17;;;0.40;;
22388;SDS011;11362;48.102;11.620;2023-11-19T14:51:20;1.00;;;0.40;;
22388;SDS011;11362;48.102;11.620;2023-11-19T14:53:45;3.23;;;0.60;;